Time;durP1;ratioP1;P1;durP2;ratioP2;P2;SDS_P1;SDS_P2;PMS_P1;PMS_P2;Temp;Humidity;BMP_temperature;BMP_pressure;BME280_temperature;BME280_humidity;BME280_pressure;Samples;Min_cycle;Max_cycle;Signal;HPM_P1;HPM_P2
2022/12/04 00:02:17;;;;;;;5.20;4.68;;;;;;;1.01;100.00;101513.19;6038518;23;20010;-71
2022/12/04 00:04:56;;;;;;;9.23;4.18;;;;;;;0.96;100.00;101499.41;6063932;23;20026;-72
2022/12/04 00:07:27;;;;;;;6.07;5.20;;;;;;;1.04;100.00;101513.19;6049217;23;20105;-70
2022/12/04 00:09:56;;;;;;;8.30;4.87;;;;;;;1.01;100.00;101541.63;6091547;23;20795;-72
2022/12/04 00:12:24;;;;;;;4.03;3.80;;;;;;;1.01;100.00;101520.94;6059738;23;20112;-73
2022/12/04 00:14:55;;;;;;;5.05;4.65;;;;;;;0.99;100.00;101507.16;6024145;23;20077;-71
2022/12/04 00:17:52;;;;;;;6.88;6.13;;;;;;;0.09;100.00;101358.16;6093532;23;20030;-72
2022/12/04 00:20:22;;;;;;;3.80;3.60;;;;;;;0.96;100.00;101505.44;6055284;23;20022;-72
2022/12/04 00:22:56;;;;;;;5.15;4.78;;;;;;;0.96;100.00;101508.03;6061501;23;20098;-73
2022/12/04 00:25:29;;;;;;;4.47;4.10;;;;;;;0.95;100.00;101515.78;6057455;23;20079;-72
2022/12/04 00:28:07;;;;;;;9.75;5.85;;;;;;;0.69;100.00;101449.44;6064378;23;20041;-72
2022/12/04 00:30:39;;;;;;;5.72;4.10;;;;;;;0.92;100.00;101492.50;6019354;23;20019;-72
2022/12/04 00:33:07;;;;;;;8.50;4.72;;;;;;;-1.06;100.00;101150.78;6066960;23;20028;-72
2022/12/04 00:35:33;;;;;;;6.18;4.70;;;;;;;0.90;100.00;101477.03;6040569;23;20057;-73
2022/12/04 00:38:03;;;;;;;5.47;3.55;;;;;;;-0.37;100.00;101324.50;6087653;23;20030;-72
2022/12/04 00:40:30;;;;;;;5.00;4.07;;;;;;;0.45;100.00;101408.94;6066093;23;20069;-71
2022/12/04 00:42:57;;;;;;;3.78;3.53;;;;;;;0.86;100.00;101469.25;6039858;23;20029;-74
2022/12/04 00:45:28;;;;;;;4.82;4.53;;;;;;;0.91;100.00;101481.31;6086507;23;20030;-71
2022/12/04 00:47:56;;;;;;;4.45;4.15;;;;;;;0.58;100.00;101431.34;6050833;23;20077;-71
2022/12/04 00:50:39;;;;;;;4.63;4.20;;;;;;;0.60;100.00;101439.09;6068132;23;20032;-72
2022/12/04 00:53:07;;;;;;;6.00;4.80;;;;;;;-1.15;100.00;101131.84;6061820;23;20037;-71
2022/12/04 00:55:45;;;;;;;7.05;4.13;;;;;;;0.91;100.00;101477.88;6078317;23;20029;-75
2022/12/04 00:58:16;;;;;;;6.05;3.78;;;;;;;0.49;100.00;101409.81;6046293;23;20484;-73
2022/12/04 01:00:45;;;;;;;;;;;;;;;0.91;100.00;101488.22;6064210;23;20029;-73
2022/12/04 01:03:25;;;;;;;4.88;3.55;;;;;;;0.89;100.00;101483.03;6045709;23;19906;-74
2022/12/04 01:05:55;;;;;;;3.60;3.40;;;;;;;0.24;100.00;101370.19;6068727;23;20064;-72
2022/12/04 01:08:25;;;;;;;5.43;4.93;;;;;;;0.88;100.00;101480.44;6060263;23;20026;-72
2022/12/04 01:10:53;;;;;;;4.57;4.30;;;;;;;0.36;100.00;101440.81;6064924;23;20089;-73
2022/12/04 01:13:25;;;;;;;4.63;4.00;;;;;;;0.89;100.00;101480.44;6072816;23;20049;-73
2022/12/04 01:15:53;;;;;;;4.97;4.55;;;;;;;0.59;100.00;101452.88;6082095;23;20036;-73
2022/12/04 01:18:21;;;;;;;4.22;3.95;;;;;;;0.88;100.00;101490.78;6061708;23;20018;-73
2022/12/04 01:20:51;;;;;;;8.68;3.85;;;;;;;0.88;100.00;101508.88;6067412;23;20076;-71
2022/12/04 01:23:21;;;;;;;5.03;4.63;;;;;;;0.51;100.00;101426.19;6061469;23;20496;-71
2022/12/04 01:25:58;;;;;;;4.45;4.03;;;;;;;0.81;100.00;101478.72;6067923;23;20021;-75
2022/12/04 01:28:26;;;;;;;4.25;3.95;;;;;;;0.69;100.00;101467.53;6078148;23;20036;-72
2022/12/04 01:31:04;;;;;;;5.15;3.67;;;;;;;-0.12;100.00;101321.13;6054712;23;20030;-71
2022/12/04 01:33:34;;;;;;;10.50;4.53;;;;;;;0.87;100.00;101491.66;6088386;23;20688;-71
2022/12/04 01:36:05;;;;;;;5.60;5.10;;;;;;;0.09;100.00;101360.72;6070118;23;20097;-72
2022/12/04 01:38:39;;;;;;;5.22;4.72;;;;;;;0.20;100.00;101371.91;6074084;23;20252;-73
2022/12/04 01:41:09;;;;;;;4.57;4.18;;;;;;;0.86;100.00;101495.94;6048620;23;20023;-72
2022/12/04 01:43:40;;;;;;;4.32;4.10;;;;;;;0.88;100.00;101488.19;6071183;23;20029;-73
2022/12/04 01:46:09;;;;;;;7.57;5.20;;;;;;;0.86;100.00;101479.59;6033962;23;20034;-72
2022/12/04 01:48:45;;;;;;;3.55;3.45;;;;;;;0.86;100.00;101479.59;6061443;23;20030;-72
2022/12/04 01:51:21;;;;;;;15.02;4.85;;;;;;;0.87;100.00;101473.56;6058709;23;20031;-72
2022/12/04 01:54:04;;;;;;;3.97;3.72;;;;;;;0.86;100.00;101466.66;6087448;23;20042;-72
2022/12/04 01:56:41;;;;;;;3.90;3.60;;;;;;;0.67;100.00;101427.06;6056373;23;20007;-74
2022/12/04 01:59:24;;;;;;;4.00;3.80;;;;;;;0.85;100.00;101465.81;6041849;23;20081;-71
2022/12/04 02:01:58;;;;;;;4.65;4.30;;;;;;;0.84;100.00;101461.47;6036553;23;20006;-71
2022/12/04 02:04:32;;;;;;;3.92;3.63;;;;;;;0.82;100.00;101463.22;6083477;23;20081;-73
2022/12/04 02:07:00;;;;;;;3.90;3.60;;;;;;;0.82;100.00;101465.78;6069085;23;20081;-72
2022/12/04 02:09:38;;;;;;;5.70;3.53;;;;;;;0.47;100.00;101402.06;6059443;23;20045;-73
2022/12/04 02:12:34;;;;;;;3.60;3.40;;;;;;;0.85;100.00;101457.19;6026362;23;20081;-74
2022/12/04 02:15:33;;;;;;;5.00;4.70;;;;;;;0.63;100.00;101425.34;6087850;23;20091;-73
2022/12/04 02:18:18;;;;;;;3.90;3.60;;;;;;;0.84;100.00;101470.97;6085301;23;20036;-73
2022/12/04 02:21:03;;;;;;;6.57;3.55;;;;;;;0.85;100.00;101452.03;6055682;23;20083;-72
2022/12/04 02:23:51;;;;;;;10.90;6.00;;;;;;;0.84;100.00;101456.31;6067075;23;20027;-73
2022/12/04 02:27:07;;;;;;;4.50;4.15;;;;;;;0.84;100.00;101458.06;6050873;23;20076;-73
2022/12/04 02:30:00;;;;;;;4.47;4.18;;;;;;;0.59;100.00;101425.31;6064182;23;20028;-72
2022/12/04 02:32:35;;;;;;;3.42;3.28;;;;;;;0.79;100.00;101461.50;6017406;23;20071;-71
2022/12/04 02:35:27;;;;;;;3.58;3.38;;;;;;;0.50;100.00;101412.41;6050684;23;20129;-73
2022/12/04 02:38:09;;;;;;;3.75;3.40;;;;;;;0.82;100.00;101462.34;6092894;23;20021;-73
2022/12/04 02:40:49;;;;;;;;;;;;;;;0.79;100.00;101458.06;6059381;23;20030;-72
2022/12/04 02:43:34;;;;;;;4.78;4.15;;;;;;;0.76;100.00;101463.22;6040651;23;19984;-71
2022/12/04 02:46:16;;;;;;;7.10;3.88;;;;;;;0.77;100.00;101463.22;6043626;23;20025;-72
2022/12/04 02:48:49;;;;;;;3.65;3.35;;;;;;;0.79;100.00;101465.81;6061304;23;20022;-73
2022/12/04 02:51:30;;;;;;;3.97;3.67;;;;;;;0.43;100.00;101395.19;6092929;23;20037;-72
2022/12/04 02:54:06;;;;;;;6.10;4.72;;;;;;;0.79;100.00;101458.06;6082479;23;20080;-74
2022/12/04 02:56:40;;;;;;;5.22;3.97;;;;;;;-0.16;100.00;101295.31;6074419;23;20505;-73
2022/12/04 02:59:34;;;;;;;4.18;3.88;;;;;;;0.79;100.00;101461.50;6053899;23;20029;-73
2022/12/04 03:02:25;;;;;;;5.03;3.28;;;;;;;0.65;100.00;101437.38;6063126;23;20097;-72
2022/12/04 03:04:56;;;;;;;6.70;4.80;;;;;;;0.67;100.00;101445.13;6058441;23;20022;-71
2022/12/04 03:07:51;;;;;;;4.50;4.10;;;;;;;-0.17;100.00;101333.16;6091432;23;20029;-73
2022/12/04 03:10:26;;;;;;;4.32;3.95;;;;;;;0.81;100.00;101463.22;6065890;23;20029;-74
2022/12/04 03:13:02;;;;;;;8.43;4.15;;;;;;;0.72;100.00;101443.41;6062766;23;20590;-71
2022/12/04 03:15:39;;;;;;;4.88;4.55;;;;;;;0.66;100.00;101441.69;6062737;23;20315;-72
2022/12/04 03:18:38;;;;;;;4.30;4.00;;;;;;;0.65;100.00;101431.38;6065230;23;21483;-73
2022/12/04 03:21:14;;;;;;;4.57;4.30;;;;;;;0.62;100.00;101428.75;6058538;23;20085;-73
2022/12/04 03:23:56;;;;;;;4.13;3.60;;;;;;;0.76;100.00;101464.09;6063030;23;20038;-73
2022/12/04 03:26:38;;;;;;;4.13;3.55;;;;;;;0.74;100.00;101467.50;6060337;23;20030;-72
2022/12/04 03:29:13;;;;;;;5.38;4.68;;;;;;;0.74;100.00;101473.56;6068381;23;20024;-73
2022/12/04 03:31:51;;;;;;;4.22;3.90;;;;;;;0.73;100.00;101458.06;6075073;23;20022;-73
2022/12/04 03:34:36;;;;;;;11.20;4.45;;;;;;;0.74;100.00;101464.94;6077290;23;20713;-75
2022/12/04 03:37:15;;;;;;;4.55;4.22;;;;;;;0.11;100.00;101357.28;6023252;23;20056;-73
2022/12/04 03:40:03;;;;;;;3.88;3.67;;;;;;;0.75;100.00;101456.34;6090287;23;20753;-72
2022/12/04 03:42:59;;;;;;;5.00;4.47;;;;;;;0.59;100.00;101429.63;6078906;23;20022;-73
2022/12/04 03:45:43;;;;;;;3.50;3.40;;;;;;;0.49;100.00;101415.84;6088682;23;20196;-73
2022/12/04 03:48:21;;;;;;;4.90;4.53;;;;;;;0.72;100.00;101462.38;6073253;23;20461;-72
2022/12/04 03:51:01;;;;;;;6.30;5.68;;;;;;;0.71;100.00;101460.63;6087034;23;20065;-72
2022/12/04 03:53:43;;;;;;;4.40;4.20;;;;;;;0.69;100.00;101452.03;6075645;23;20022;-74
2022/12/04 03:56:17;;;;;;;22.80;3.97;;;;;;;0.70;100.00;101464.09;6064717;23;20021;-74
2022/12/04 03:58:56;;;;;;;3.50;3.30;;;;;;;-0.16;100.00;101313.38;6049548;23;20050;-74
2022/12/04 04:01:31;;;;;;;3.88;3.58;;;;;;;0.64;100.00;101445.97;6046054;23;20025;-73
2022/12/04 04:04:03;;;;;;;4.85;4.45;;;;;;;0.62;100.00;101450.28;6036037;23;20599;-73
2022/12/04 04:06:42;;;;;;;8.18;4.38;;;;;;;0.61;100.00;101455.47;6080900;23;20025;-73
2022/12/04 04:09:20;;;;;;;4.05;3.53;;;;;;;0.57;100.00;101460.63;6058650;23;20025;-73
2022/12/04 04:12:12;;;;;;;9.57;4.28;;;;;;;0.57;100.00;101460.63;6023393;23;20019;-73
2022/12/04 04:26:03;;;;;;;7.70;3.33;;;;;;;0.59;100.00;101460.63;6077018;23;20030;-71
2022/12/04 04:28:38;;;;;;;4.18;3.95;;;;;;;0.59;100.00;101466.63;6032586;23;20014;-74
2022/12/04 04:31:14;;;;;;;5.63;5.10;;;;;;;0.61;100.00;101458.91;6044474;23;20021;-73
2022/12/04 04:34:03;;;;;;;4.65;4.30;;;;;;;0.63;100.00;101472.69;6034595;23;20026;-73
2022/12/04 04:37:04;;;;;;;5.10;4.70;;;;;;;0.62;100.00;101449.41;6087145;23;20030;-72
2022/12/04 04:39:44;;;;;;;4.07;3.88;;;;;;;0.50;100.00;101438.25;6066647;23;20584;-72
2022/12/04 04:42:20;;;;;;;4.85;4.47;;;;;;;0.59;100.00;101445.97;6069571;23;20037;-72
2022/12/04 04:45:01;;;;;;;4.45;4.10;;;;;;;0.59;100.00;101445.13;6086036;23;20729;-73
2022/12/04 04:47:54;;;;;;;3.60;3.40;;;;;;;0.54;100.00;101436.50;6051549;23;20015;-72
2022/12/04 04:50:22;;;;;;;6.38;3.70;;;;;;;0.60;100.00;101446.84;6069890;23;20066;-73
2022/12/04 04:52:55;;;;;;;5.70;5.25;;;;;;;0.24;100.00;101384.00;6092691;23;20725;-73
2022/12/04 04:55:22;;;;;;;3.65;3.35;;;;;;;0.05;100.00;101364.16;6056333;23;20032;-72
2022/12/04 04:57:49;;;;;;;3.35;3.15;;;;;;;0.58;100.00;101444.28;6078904;23;20040;-73
2022/12/04 05:00:21;;;;;;;4.88;3.80;;;;;;;0.58;100.00;101430.47;6095836;23;20022;-73
2022/12/04 05:02:49;;;;;;;4.38;4.07;;;;;;;-0.58;100.00;101304.66;6062872;23;20029;-73
2022/12/04 05:05:18;;;;;;;5.35;4.90;;;;;;;0.56;100.00;101434.78;6065267;23;20055;-72
2022/12/04 05:07:45;;;;;;;4.30;4.00;;;;;;;0.42;100.00;101408.94;6090017;23;20646;-72
2022/12/04 05:10:13;;;;;;;11.93;5.38;;;;;;;0.38;100.00;101408.09;6071517;23;20080;-71
2022/12/04 05:12:39;;;;;;;4.05;3.70;;;;;;;0.41;100.00;101403.78;6071682;23;20084;-71
2022/12/04 05:15:06;;;;;;;3.63;3.42;;;;;;;0.45;100.00;101421.88;6066708;23;20028;-73
2022/12/04 05:17:34;;;;;;;4.43;4.22;;;;;;;0.54;100.00;101434.81;6063478;23;20094;-73
2022/12/04 05:20:03;;;;;;;4.70;4.40;;;;;;;-0.04;100.00;101350.38;6067036;23;20131;-74
2022/12/04 05:22:33;;;;;;;5.40;4.97;;;;;;;0.56;100.00;101430.50;6092617;23;20022;-72
2022/12/04 05:25:01;;;;;;;4.18;3.95;;;;;;;0.57;100.00;101427.03;6042731;23;20179;-73
2022/12/04 05:27:29;;;;;;;3.55;3.35;;;;;;;0.50;100.00;101414.13;6070510;23;20038;-73
2022/12/04 05:29:57;;;;;;;7.15;5.32;;;;;;;0.61;100.00;101424.47;6065571;23;20013;-72
2022/12/04 05:32:26;;;;;;;4.35;4.05;;;;;;;0.42;100.00;101396.03;6077252;23;20538;-72
2022/12/04 05:34:55;;;;;;;4.43;3.42;;;;;;;0.61;100.00;101427.06;6088875;23;20049;-72
2022/12/04 05:37:22;;;;;;;3.70;3.40;;;;;;;0.60;100.00;101433.91;6049642;23;20030;-72
2022/12/04 05:39:49;;;;;;;4.45;4.05;;;;;;;0.15;100.00;101371.91;6085903;23;20014;-71
2022/12/04 05:42:18;;;;;;;5.20;4.70;;;;;;;0.48;100.00;101415.84;6061006;23;20564;-71
2022/12/04 05:44:45;;;;;;;3.47;3.28;;;;;;;-0.48;100.00;101241.94;6066732;23;20013;-71
2022/12/04 05:47:11;;;;;;;3.67;3.53;;;;;;;0.25;100.00;101372.78;6060084;23;20018;-71
2022/12/04 05:49:37;;;;;;;4.38;4.00;;;;;;;0.15;100.00;101346.09;6093729;23;20029;-70
2022/12/04 05:52:04;;;;;;;7.20;4.13;;;;;;;0.66;100.00;101426.19;6081477;23;20484;-73
2022/12/04 05:54:32;;;;;;;5.00;3.63;;;;;;;0.40;100.00;101384.84;6063171;23;20075;-73
2022/12/04 05:56:58;;;;;;;3.53;3.22;;;;;;;0.52;100.00;101425.31;6037643;23;20034;-72
2022/12/04 05:59:25;;;;;;;6.68;5.30;;;;;;;0.03;100.00;101327.16;6094580;23;20025;-73
2022/12/04 06:01:52;;;;;;;3.53;3.33;;;;;;;0.54;100.00;101419.31;6071597;23;20021;-73
2022/12/04 06:04:19;;;;;;;7.50;3.95;;;;;;;0.53;100.00;101422.72;6048928;23;20506;-72
2022/12/04 06:06:46;;;;;;;3.25;3.10;;;;;;;-2.47;100.00;100958.06;6059358;23;20656;-73
2022/12/04 06:09:12;;;;;;;7.82;5.28;;;;;;;-0.03;100.00;101383.06;6042932;23;20382;-72
2022/12/04 06:11:41;;;;;;;4.13;3.83;;;;;;;0.11;100.00;101411.47;6080951;23;20038;-71
2022/12/04 06:14:12;;;;;;;3.30;3.13;;;;;;;0.27;100.00;101438.19;6045994;23;20027;-73
2022/12/04 06:16:41;;;;;;;3.38;3.17;;;;;;;0.24;100.00;101426.97;6076898;23;20202;-72
2022/12/04 06:19:13;;;;;;;5.05;4.45;;;;;;;0.23;100.00;101439.03;6066366;23;20014;-72
2022/12/04 06:21:47;;;;;;;2.83;2.72;;;;;;;-0.49;100.00;101323.59;6057074;23;20010;-72
2022/12/04 06:24:23;;;;;;;3.80;3.60;;;;;;;0.29;100.00;101446.78;6091249;23;20025;-72
2022/12/04 06:26:50;;;;;;;2.60;2.50;;;;;;;0.08;100.00;101429.56;6051877;23;20473;-71
2022/12/04 06:29:37;;;;;;;3.92;3.67;;;;;;;0.34;100.00;101447.69;6084508;23;20100;-71
2022/12/04 06:32:04;;;;;;;4.38;3.97;;;;;;;0.19;100.00;101439.88;6067894;23;20086;-71
2022/12/04 06:34:31;;;;;;;3.42;3.22;;;;;;;0.28;100.00;101441.63;6086502;23;20014;-73
2022/12/04 06:36:57;;;;;;;4.20;3.88;;;;;;;0.29;100.00;101433.88;6048226;23;20041;-72
2022/12/04 06:39:24;;;;;;;3.78;3.47;;;;;;;0.41;100.00;101458.88;6093363;23;20026;-72
2022/12/04 06:41:50;;;;;;;3.50;2.75;;;;;;;0.02;100.00;101390.81;6078267;23;20026;-71
2022/12/04 06:44:18;;;;;;;3.53;3.22;;;;;;;0.48;100.00;101464.91;6098995;23;20083;-71
2022/12/04 06:46:47;;;;;;;3.45;3.30;;;;;;;0.52;100.00;101469.22;6085774;23;20052;-73
2022/12/04 06:49:16;;;;;;;5.00;3.40;;;;;;;0.51;100.00;101467.50;6028097;23;20031;-73
2022/12/04 06:51:43;;;;;;;3.13;3.00;;;;;;;-0.32;100.00;101317.63;6069769;23;20036;-74
2022/12/04 06:54:09;;;;;;;3.13;3.03;;;;;;;0.42;100.00;101441.66;6094342;23;20453;-73
2022/12/04 06:56:39;;;;;;;4.78;4.47;;;;;;;0.50;100.00;101464.06;6067641;23;20025;-75
2022/12/04 06:59:06;;;;;;;3.08;2.97;;;;;;;0.51;100.00;101467.50;6071145;23;20068;-73
2022/12/04 07:01:34;;;;;;;3.45;3.30;;;;;;;0.35;100.00;101441.63;6087632;23;20041;-71
2022/12/04 07:04:02;;;;;;;4.10;3.58;;;;;;;0.47;100.00;101463.19;6093682;23;20026;-73
2022/12/04 07:06:37;;;;;;;4.25;3.05;;;;;;;0.48;100.00;101465.78;6070575;23;20088;-72
2022/12/04 07:09:14;;;;;;;3.35;3.17;;;;;;;-0.05;100.00;101363.28;6092659;23;20025;-73
2022/12/04 07:11:44;;;;;;;3.92;3.65;;;;;;;0.47;100.00;101458.88;6090399;23;20034;-72
2022/12/04 07:14:12;;;;;;;7.60;5.43;;;;;;;0.47;100.00;101473.53;6026381;23;20030;-71
2022/12/04 07:16:40;;;;;;;3.10;2.90;;;;;;;0.18;100.00;101422.66;6064140;23;20038;-71
2022/12/04 07:19:11;;;;;;;4.63;4.25;;;;;;;0.54;100.00;101467.50;6055986;23;20037;-71
2022/12/04 07:21:40;;;;;;;3.42;3.22;;;;;;;0.49;100.00;101474.38;6090963;23;20013;-72
2022/12/04 07:24:15;;;;;;;3.30;3.20;;;;;;;0.48;100.00;101485.56;6060010;23;20034;-72
2022/12/04 07:26:42;;;;;;;3.67;3.38;;;;;;;-0.02;100.00;101423.50;6084929;23;20034;-71
2022/12/04 07:29:10;;;;;;;4.15;3.90;;;;;;;0.50;100.00;101481.25;6049666;23;20046;-72
2022/12/04 07:31:37;;;;;;;5.03;3.65;;;;;;;0.50;100.00;101476.09;6079744;23;20030;-72
2022/12/04 07:34:08;;;;;;;2.72;2.63;;;;;;;0.21;100.00;101427.84;6065135;23;20010;-73
2022/12/04 07:36:38;;;;;;;3.25;3.05;;;;;;;0.54;100.00;101482.97;6068187;23;20029;-77
2022/12/04 07:39:08;;;;;;;3.42;3.28;;;;;;;0.42;100.00;101473.50;6061668;23;20010;-76
2022/12/04 07:41:35;;;;;;;3.33;3.13;;;;;;;-0.57;100.00;101317.56;6071193;23;20085;-75
2022/12/04 07:44:01;;;;;;;5.93;4.95;;;;;;;-0.13;100.00;101391.63;6077932;23;20034;-75
2022/12/04 07:46:28;;;;;;;3.75;3.55;;;;;;;0.62;100.00;101517.44;6090380;23;20025;-76
2022/12/04 07:48:59;;;;;;;3.30;3.13;;;;;;;0.64;100.00;101492.47;6065504;23;20641;-75
2022/12/04 07:51:29;;;;;;;3.55;3.35;;;;;;;-0.70;99.25;101259.06;6088475;23;20112;-75
2022/12/04 07:53:58;;;;;;;3.22;3.03;;;;;;;0.02;99.58;101380.50;6067576;23;20524;-77
2022/12/04 07:56:29;;;;;;;3.33;3.13;;;;;;;0.03;99.37;101389.09;6069106;23;20530;-75
2022/12/04 07:58:56;;;;;;;3.80;3.60;;;;;;;0.59;98.90;101481.28;6056590;23;20033;-75
2022/12/04 08:01:23;;;;;;;2.90;2.80;;;;;;;0.47;98.60;101445.97;6082458;23;20006;-77
2022/12/04 08:03:53;;;;;;;2.67;2.58;;;;;;;0.69;97.90;101480.44;6076500;23;20087;-78
2022/12/04 08:06:23;;;;;;;3.10;3.00;;;;;;;0.13;98.10;101437.28;6091469;23;20018;-76
2022/12/04 08:08:50;;;;;;;2.70;2.60;;;;;;;0.14;98.40;101437.31;6053113;23;20073;-75
2022/12/04 08:11:22;;;;;;;3.70;3.40;;;;;;;0.64;98.16;101505.38;6055864;23;20033;-77
2022/12/04 08:14:00;;;;;;;4.15;3.85;;;;;;;0.64;98.41;101499.38;6073715;23;20076;-78
2022/12/04 08:16:35;;;;;;;3.15;2.95;;;;;;;-0.24;98.32;101334.84;6068036;23;20079;-76
2022/12/04 08:19:07;;;;;;;3.13;3.03;;;;;;;0.13;98.79;101401.16;6064378;23;20052;-76
2022/12/04 08:21:36;;;;;;;;;;;;;;;0.67;98.94;101499.38;6068108;23;20021;-76
2022/12/04 08:24:05;;;;;;;3.70;3.35;;;;;;;-0.84;97.97;101239.28;6063324;23;19913;-75
2022/12/04 08:26:36;;;;;;;3.10;2.95;;;;;;;0.67;98.33;101499.38;6045354;23;20030;-75
2022/12/04 08:29:24;;;;;;;3.53;3.33;;;;;;;0.64;98.20;101495.06;6086343;23;20103;-75
2022/12/04 08:32:11;;;;;;;4.40;4.05;;;;;;;0.62;97.81;101489.03;6039049;23;20026;-76
2022/12/04 08:34:55;;;;;;;3.70;3.50;;;;;;;0.66;97.95;101493.38;6085966;23;20075;-77
2022/12/04 08:37:26;;;;;;;6.50;4.43;;;;;;;0.68;98.47;101501.97;6090859;23;20039;-76
2022/12/04 08:39:57;;;;;;;4.25;3.47;;;;;;;0.63;98.78;101498.50;6063580;23;20037;-76
2022/12/04 08:42:43;;;;;;;2.95;2.85;;;;;;;0.46;98.51;101480.41;6069686;23;20022;-76
2022/12/04 08:45:11;;;;;;;3.30;3.20;;;;;;;0.35;99.11;101451.97;6086957;23;20084;-76
2022/12/04 08:47:53;;;;;;;4.07;2.58;;;;;;;-0.84;98.67;101256.47;6065786;23;20463;-75
2022/12/04 08:50:27;;;;;;;2.97;2.88;;;;;;;0.27;99.53;101443.34;6026532;23;20085;-75
2022/12/04 08:52:55;;;;;;;2.97;2.88;;;;;;;0.57;99.83;101490.75;6071866;23;20018;-75
2022/12/04 08:55:31;;;;;;;4.03;3.72;;;;;;;0.43;99.89;101469.22;6055340;23;20042;-76
2022/12/04 08:58:08;;;;;;;3.75;3.55;;;;;;;0.75;100.00;101519.19;6069142;23;20558;-75
2022/12/04 09:00:36;;;;;;;2.95;2.85;;;;;;;0.76;100.00;101523.50;6057895;23;20036;-76
2022/12/04 09:03:16;;;;;;;3.05;2.95;;;;;;;0.18;100.00;101423.56;6058750;23;20034;-75
2022/12/04 09:06:03;;;;;;;4.22;3.08;;;;;;;0.81;100.00;101610.50;6086078;23;20017;-76
2022/12/04 09:08:36;;;;;;;3.72;3.40;;;;;;;0.26;100.00;101445.91;6091637;23;20030;-75
2022/12/04 09:11:18;;;;;;;2.65;2.55;;;;;;;0.90;100.00;101539.03;6035903;23;20022;-76
2022/12/04 09:13:54;;;;;;;3.00;2.90;;;;;;;0.11;100.00;101405.47;6072506;23;20503;-76
2022/12/04 09:16:25;;;;;;;3.65;3.40;;;;;;;0.78;100.00;101508.88;6077660;23;20026;-76
2022/12/04 09:19:11;;;;;;;3.13;3.00;;;;;;;0.84;99.65;101512.31;6069770;23;20032;-75
2022/12/04 09:21:39;;;;;;;;;;;;;;;0.87;99.25;101507.16;6056681;23;20018;-75
2022/12/04 09:24:09;;;;;;;3.67;3.47;;;;;;;0.81;98.94;101513.19;6067289;23;19930;-76
2022/12/04 09:26:37;;;;;;;3.53;3.25;;;;;;;0.81;99.39;101509.75;6071031;23;20696;-75
2022/12/04 09:29:04;;;;;;;3.92;3.63;;;;;;;0.83;98.87;101521.78;6061131;23;20030;-79
2022/12/04 09:31:31;;;;;;;4.30;3.78;;;;;;;-1.72;98.58;101124.75;6082118;23;20033;-76
2022/12/04 09:33:59;;;;;;;2.88;2.72;;;;;;;0.06;98.27;101396.84;6038721;23;20044;-76
2022/12/04 09:36:27;;;;;;;4.15;3.85;;;;;;;0.70;98.95;101507.13;6068138;23;20042;-76
2022/12/04 09:38:54;;;;;;;3.88;3.58;;;;;;;0.30;99.03;101447.66;6094159;23;20022;-76
2022/12/04 09:41:24;;;;;;;3.08;2.97;;;;;;;0.41;99.26;101481.25;6021049;23;20030;-75
2022/12/04 09:44:03;;;;;;;4.00;3.60;;;;;;;0.77;98.82;101530.38;6084937;23;20018;-75
2022/12/04 09:47:01;;;;;;;3.60;3.40;;;;;;;0.82;99.10;101539.88;6065582;23;20025;-75
2022/12/04 09:49:41;;;;;;;6.00;4.03;;;;;;;0.81;98.65;101541.59;6053721;23;20031;-76
2022/12/04 09:52:31;;;;;;;3.83;3.63;;;;;;;0.81;99.10;101541.59;6078148;23;20029;-76
2022/12/04 09:55:07;;;;;;;4.97;3.33;;;;;;;0.64;99.16;101533.78;6072912;23;20033;-77
2022/12/04 09:57:41;;;;;;;3.70;3.42;;;;;;;0.51;98.98;101521.72;6053442;23;20022;-77
2022/12/04 10:00:11;;;;;;;;;;;;;;;0.73;99.07;101541.56;6034954;23;20041;-76
2022/12/04 10:02:41;;;;;;;7.18;3.03;;;;;;;0.55;99.11;101510.56;6064253;23;19988;-75
2022/12/04 10:05:36;;;;;;;2.63;2.53;;;;;;;0.81;99.35;101527.81;6041059;23;20021;-75
2022/12/04 10:08:18;;;;;;;3.30;3.10;;;;;;;0.18;99.46;101445.91;6066042;23;20246;-75
2022/12/04 10:11:03;;;;;;;3.30;3.10;;;;;;;0.67;99.82;101530.38;6067310;23;20033;-76
2022/12/04 10:13:53;;;;;;;3.38;3.08;;;;;;;0.23;99.64;101474.31;6084025;23;20023;-75
2022/12/04 10:16:37;;;;;;;3.10;3.00;;;;;;;-0.28;99.94;101386.41;6065104;23;20038;-76
2022/12/04 10:19:19;;;;;;;3.50;3.30;;;;;;;0.56;100.00;101533.81;6049625;23;20054;-75
2022/12/04 10:22:23;;;;;;;3.35;3.20;;;;;;;0.54;99.80;101527.78;6058578;23;20018;-74
2022/12/04 10:25:02;;;;;;;3.85;3.50;;;;;;;0.57;100.00;101516.56;6058061;23;20066;-75
2022/12/04 10:27:36;;;;;;;3.53;3.33;;;;;;;0.50;100.00;101492.47;6075005;23;20097;-76
2022/12/04 10:30:23;;;;;;;4.10;2.88;;;;;;;0.29;99.64;101433.88;6071488;23;20452;-76
2022/12/04 10:32:58;;;;;;;7.00;3.15;;;;;;;0.81;99.96;101527.81;6089285;23;20035;-76
2022/12/04 10:35:30;;;;;;;3.97;3.30;;;;;;;0.52;99.70;101462.34;6086550;23;20017;-75
2022/12/04 10:38:01;;;;;;;3.88;3.58;;;;;;;0.07;99.09;101393.41;6089617;23;20034;-75
2022/12/04 10:40:45;;;;;;;3.58;3.30;;;;;;;0.53;98.99;101458.03;6064176;23;20018;-76
2022/12/04 10:43:30;;;;;;;3.67;3.47;;;;;;;0.88;98.96;101504.59;6057949;23;20101;-76
2022/12/04 10:45:57;;;;;;;10.05;2.92;;;;;;;0.33;99.23;101419.28;6086029;23;20025;-76
2022/12/04 10:48:34;;;;;;;3.35;3.15;;;;;;;0.22;98.84;101374.50;6066316;23;20260;-75
2022/12/04 10:51:01;;;;;;;3.00;2.90;;;;;;;0.13;98.26;101371.03;6076524;23;20018;-76
2022/12/04 10:53:35;;;;;;;3.65;3.38;;;;;;;0.64;97.94;101427.88;6064955;23;20086;-75
2022/12/04 10:56:09;;;;;;;3.20;3.00;;;;;;;0.70;98.62;101422.75;6079427;23;20052;-75
2022/12/04 10:58:36;;;;;;;4.70;3.38;;;;;;;1.15;97.94;101493.38;6084855;23;20040;-75
2022/12/04 11:01:09;;;;;;;3.28;2.97;;;;;;;1.15;97.95;101493.38;6032913;23;20011;-75
2022/12/04 11:03:44;;;;;;;3.47;3.28;;;;;;;0.85;98.40;101436.53;6061533;23;20026;-76
2022/12/04 11:06:14;;;;;;;3.67;3.35;;;;;;;-0.26;98.06;101266.94;6068070;23;20021;-77
2022/12/04 11:08:47;;;;;;;3.22;3.13;;;;;;;0.36;98.08;101378.84;6083811;23;20057;-76
2022/12/04 11:11:21;;;;;;;3.13;3.03;;;;;;;1.16;97.93;101477.00;6064092;23;20030;-76
2022/12/04 11:13:47;;;;;;;4.13;3.58;;;;;;;1.11;98.09;101476.13;6078342;23;20037;-75
2022/12/04 11:16:36;;;;;;;3.75;3.45;;;;;;;0.86;99.25;101449.44;6066497;23;20559;-75
2022/12/04 11:19:21;;;;;;;4.15;3.85;;;;;;;-1.92;98.53;101032.06;6071947;23;20309;-75
2022/12/04 11:21:49;;;;;;;3.80;3.20;;;;;;;0.93;99.29;101479.59;6064422;23;20083;-75
2022/12/04 11:24:27;;;;;;;3.28;3.15;;;;;;;-0.46;100.00;101246.28;6053200;23;20041;-75
2022/12/04 11:26:55;;;;;;;3.08;2.88;;;;;;;-0.10;100.00;101309.09;6087366;23;20022;-76
2022/12/04 11:29:32;;;;;;;3.08;2.97;;;;;;;0.92;100.00;101471.81;6072003;23;20437;-74
2022/12/04 11:32:00;;;;;;;2.80;2.70;;;;;;;0.64;100.00;101427.88;6085300;23;20021;-75
2022/12/04 11:34:39;;;;;;;3.92;3.72;;;;;;;1.03;100.00;101477.03;6065450;23;20617;-75
2022/12/04 11:37:25;;;;;;;3.67;3.40;;;;;;;1.01;100.00;101479.59;6044627;23;20404;-76
2022/12/04 11:39:54;;;;;;;3.33;3.10;;;;;;;1.01;100.00;101478.75;6063077;23;20409;-75
2022/12/04 11:42:29;;;;;;;3.63;3.42;;;;;;;0.95;100.00;101477.00;6051423;23;20101;-80
2022/12/04 11:45:02;;;;;;;3.03;2.92;;;;;;;0.90;100.00;101471.84;6072669;23;20487;-74
2022/12/04 11:47:31;;;;;;;3.53;3.33;;;;;;;0.78;100.00;101440.81;6083716;23;20018;-76
2022/12/04 11:50:24;;;;;;;3.70;3.38;;;;;;;0.36;100.00;101384.00;6029645;23;20096;-76
2022/12/04 11:53:01;;;;;;;;;;;;;;;1.01;100.00;101465.81;6068322;23;20022;-74
2022/12/04 11:55:35;;;;;;;3.97;3.78;;;;;;;0.71;100.00;101419.28;6075502;23;19917;-76
2022/12/04 11:58:20;;;;;;;5.13;3.60;;;;;;;1.11;100.00;101468.38;6093166;23;20482;-76
2022/12/04 12:01:17;;;;;;;4.00;3.78;;;;;;;1.02;100.00;101442.53;6087395;23;20033;-74
2022/12/04 12:04:38;;;;;;;3.17;2.97;;;;;;;1.18;99.75;101461.47;6067051;23;20108;-74
2022/12/04 12:07:05;;;;;;;3.15;2.95;;;;;;;1.13;98.94;101453.72;5977572;23;20028;-76
2022/12/04 12:09:55;;;;;;;3.78;3.58;;;;;;;1.08;99.84;101439.94;6046597;23;20034;-76
2022/12/04 12:12:25;;;;;;;3.92;3.22;;;;;;;1.14;99.30;101462.34;6058212;23;20049;-74
2022/12/04 12:15:11;;;;;;;2.58;2.47;;;;;;;1.24;99.29;101458.03;6053240;23;20015;-75